createdAt,value
2023-02-17T00:02:15.817Z,8.00
2023-02-17T00:04:48.541Z,8.60
2023-02-17T00:07:19.994Z,8.52
2023-02-17T00:09:50.040Z,8.68
2023-02-17T00:12:20.145Z,7.55
2023-02-17T00:14:50.215Z,7.50
2023-02-17T00:17:21.840Z,7.70
2023-02-17T00:19:56.632Z,7.75
2023-02-17T00:22:27.101Z,9.05
2023-02-17T00:24:57.181Z,8.65
2023-02-17T00:27:27.277Z,7.65
2023-02-17T00:29:59.882Z,7.85
2023-02-17T00:32:30.164Z,8.32
2023-02-17T00:35:02.799Z,8.10
2023-02-17T00:37:32.918Z,7.65
2023-02-17T00:40:03.057Z,8.68
2023-02-17T00:42:33.172Z,8.45
2023-02-17T00:45:03.248Z,7.88
2023-02-17T00:47:33.383Z,7.97
2023-02-17T00:50:06.579Z,7.95
2023-02-17T00:52:36.701Z,7.55
2023-02-17T00:55:07.675Z,7.60
2023-02-17T00:57:37.741Z,7.80
2023-02-17T01:00:11.122Z,7.35
2023-02-17T01:02:41.234Z,7.05
2023-02-17T01:05:16.586Z,6.85
2023-02-17T01:07:46.730Z,7.45
2023-02-17T01:10:19.699Z,6.45
2023-02-17T01:12:49.811Z,7.00
2023-02-17T01:15:20.188Z,6.07
2023-02-17T01:17:50.280Z,6.57
2023-02-17T01:20:23.300Z,6.47
2023-02-17T01:22:54.428Z,5.90
2023-02-17T01:25:24.556Z,6.78
2023-02-17T01:27:54.823Z,6.03
2023-02-17T01:30:25.299Z,5.63
2023-02-17T01:32:55.483Z,5.72
2023-02-17T01:35:29.138Z,5.90
2023-02-17T01:37:59.266Z,5.65
2023-02-17T01:40:30.696Z,6.10
2023-02-17T01:43:00.911Z,5.70
2023-02-17T01:45:44.662Z,5.35
2023-02-17T01:48:19.942Z,5.40
2023-02-17T01:51:00.946Z,5.55
2023-02-17T01:53:40.188Z,4.78
2023-02-17T01:56:12.672Z,4.88
2023-02-17T01:58:49.815Z,5.18
2023-02-17T02:01:20.837Z,4.70
2023-02-17T02:03:53.518Z,4.82
2023-02-17T02:06:29.993Z,4.63
2023-02-17T02:09:07.096Z,4.25
2023-02-17T02:11:39.297Z,4.68
2023-02-17T02:14:14.118Z,4.57
2023-02-17T02:16:57.270Z,3.78
2023-02-17T02:19:58.719Z,3.95
2023-02-17T02:23:10.333Z,4.53
2023-02-17T02:26:13.196Z,4.05
2023-02-17T02:29:03.817Z,4.28
2023-02-17T02:31:54.100Z,3.80
2023-02-17T02:34:33.335Z,4.28
2023-02-17T02:37:11.939Z,4.82
2023-02-17T02:39:49.800Z,3.72
2023-02-17T02:42:24.729Z,4.57
2023-02-17T02:44:55.000Z,4.30
2023-02-17T02:47:49.669Z,4.30
2023-02-17T02:50:31.508Z,4.32
2023-02-17T02:53:37.065Z,4.35
2023-02-17T02:56:20.409Z,4.13
2023-02-17T02:59:03.988Z,4.10
2023-02-17T03:01:46.023Z,4.57
2023-02-17T03:04:31.874Z,4.40
2023-02-17T03:07:21.275Z,5.05
2023-02-17T03:09:53.438Z,4.88
2023-02-17T03:12:25.576Z,4.47
2023-02-17T03:15:03.693Z,4.93
2023-02-17T03:17:35.830Z,4.50
2023-02-17T03:20:08.753Z,4.45
2023-02-17T03:22:46.325Z,5.05
2023-02-17T03:25:17.638Z,4.73
2023-02-17T03:27:47.789Z,5.07
2023-02-17T03:30:21.278Z,5.10
2023-02-17T03:32:55.412Z,5.85
2023-02-17T03:35:26.826Z,4.70
2023-02-17T03:37:59.610Z,4.55
2023-02-17T03:40:29.917Z,4.68
2023-02-17T03:43:00.803Z,4.70
2023-02-17T03:45:30.945Z,5.38
2023-02-17T03:48:01.100Z,4.45
2023-02-17T03:50:31.384Z,5.05
2023-02-17T03:53:07.785Z,5.97
2023-02-17T03:55:37.866Z,5.13
2023-02-17T03:58:08.200Z,4.93
2023-02-17T04:00:38.262Z,4.63
2023-02-17T04:03:09.488Z,4.90
2023-02-17T04:05:39.553Z,4.80
2023-02-17T04:08:12.332Z,4.60
2023-02-17T04:10:42.448Z,5.00
2023-02-17T04:13:14.820Z,4.70
2023-02-17T04:15:44.894Z,4.35
2023-02-17T04:18:15.018Z,5.07
2023-02-17T04:20:45.798Z,5.03
2023-02-17T04:23:24.330Z,4.97
2023-02-17T04:25:56.147Z,4.93
2023-02-17T04:28:26.461Z,5.00
2023-02-17T04:30:56.600Z,4.65
2023-02-17T04:33:31.689Z,4.80
2023-02-17T04:36:02.390Z,5.25
2023-02-17T04:38:36.659Z,4.95
2023-02-17T04:41:07.985Z,5.18
2023-02-17T04:43:38.200Z,4.82
2023-02-17T04:46:08.946Z,5.22
2023-02-17T04:48:39.322Z,5.20
2023-02-17T04:51:09.576Z,5.10
2023-02-17T04:53:42.268Z,4.80
2023-02-17T04:56:12.364Z,5.10
2023-02-17T04:58:42.461Z,5.78
2023-02-17T05:01:12.604Z,5.25
2023-02-17T05:03:42.735Z,6.43
2023-02-17T05:06:13.114Z,5.55
2023-02-17T05:08:48.127Z,5.00
2023-02-17T05:11:20.794Z,5.43
2023-02-17T05:13:50.970Z,6.65
2023-02-17T05:16:21.172Z,5.35
2023-02-17T05:18:51.310Z,5.28
2023-02-17T05:21:21.420Z,4.93
2023-02-17T05:23:54.176Z,4.57
2023-02-17T05:26:24.449Z,4.90
2023-02-17T05:28:54.630Z,5.00
2023-02-17T05:31:25.083Z,5.10
2023-02-17T05:33:57.635Z,4.65
2023-02-17T05:36:27.712Z,4.55
2023-02-17T05:39:00.458Z,4.95
2023-02-17T05:41:30.630Z,5.10
2023-02-17T05:44:01.845Z,4.95
2023-02-17T05:46:31.950Z,4.82
2023-02-17T05:49:02.072Z,4.93
2023-02-17T05:51:32.233Z,5.53
2023-02-17T05:54:05.239Z,5.38
2023-02-17T05:56:36.014Z,4.80
2023-02-17T05:59:06.253Z,5.07
2023-02-17T06:01:40.427Z,4.65
2023-02-17T06:04:13.035Z,5.13
2023-02-17T06:06:43.170Z,5.13
2023-02-17T06:09:15.984Z,4.82
2023-02-17T06:11:46.102Z,4.80
2023-02-17T06:14:16.185Z,4.45
2023-02-17T06:16:46.319Z,4.93
2023-02-17T06:19:16.410Z,5.40
2023-02-17T06:21:46.638Z,4.50
2023-02-17T06:24:19.310Z,4.72
2023-02-17T06:26:49.374Z,4.22
2023-02-17T06:29:19.556Z,4.38
2023-02-17T06:31:49.940Z,5.10
2023-02-17T06:34:20.116Z,4.57
2023-02-17T06:36:50.250Z,4.85
2023-02-17T06:39:23.034Z,4.63
2023-02-17T06:41:53.306Z,4.82
2023-02-17T06:44:23.475Z,4.88
2023-02-17T06:46:53.527Z,4.75
2023-02-17T06:49:23.775Z,4.25
2023-02-17T06:51:54.128Z,4.22
2023-02-17T06:54:27.025Z,4.75
2023-02-17T06:56:57.137Z,5.15
2023-02-17T06:59:27.381Z,4.40
2023-02-17T07:01:57.850Z,4.30
2023-02-17T07:04:28.544Z,4.70
2023-02-17T07:06:58.689Z,4.20
2023-02-17T07:09:33.619Z,4.70
2023-02-17T07:12:04.706Z,4.65
2023-02-17T07:14:37.067Z,5.40
2023-02-17T07:17:07.221Z,4.53
2023-02-17T07:19:37.321Z,4.30
2023-02-17T07:22:07.438Z,4.70
2023-02-17T07:24:40.172Z,4.90
2023-02-17T07:27:10.922Z,4.30
2023-02-17T07:29:43.902Z,4.13
2023-02-17T07:32:14.053Z,4.57
2023-02-17T07:34:44.193Z,4.32
2023-02-17T07:37:14.523Z,4.78
2023-02-17T07:39:47.241Z,4.40
2023-02-17T07:42:17.535Z,4.00
2023-02-17T07:44:47.781Z,3.78
2023-02-17T07:47:17.956Z,3.83
2023-02-17T07:49:48.239Z,4.00
2023-02-17T07:52:21.147Z,3.72
2023-02-17T07:54:55.811Z,3.92
2023-02-17T07:57:25.940Z,3.55
2023-02-17T07:59:56.148Z,3.80
2023-02-17T08:02:26.269Z,3.80
2023-02-17T08:04:56.516Z,4.25
2023-02-17T08:07:26.662Z,3.40
2023-02-17T08:10:11.809Z,3.45
2023-02-17T08:12:54.474Z,3.30
2023-02-17T08:15:24.754Z,3.70
2023-02-17T08:17:55.460Z,3.50
2023-02-17T08:20:25.590Z,3.20
2023-02-17T08:22:55.677Z,3.85
2023-02-17T08:25:28.672Z,3.50
2023-02-17T08:27:58.718Z,3.58
2023-02-17T08:30:28.908Z,3.90
2023-02-17T08:33:01.701Z,3.30
2023-02-17T08:35:31.918Z,3.55
2023-02-17T08:38:02.034Z,2.80
2023-02-17T08:40:34.760Z,3.55
2023-02-17T08:43:04.934Z,3.50
2023-02-17T08:45:37.312Z,3.30
2023-02-17T08:48:08.557Z,3.05
2023-02-17T08:50:38.737Z,2.90
2023-02-17T08:53:08.904Z,2.80
2023-02-17T08:55:49.172Z,3.35
2023-02-17T08:58:22.412Z,2.97
2023-02-17T09:00:52.728Z,2.95
2023-02-17T09:03:23.175Z,3.60
2023-02-17T09:05:59.083Z,2.88
2023-02-17T09:08:29.579Z,3.30
2023-02-17T09:11:02.653Z,3.00
2023-02-17T09:13:32.811Z,2.70
2023-02-17T09:16:03.088Z,2.60
2023-02-17T09:18:33.326Z,2.75
2023-02-17T09:21:09.200Z,2.55
2023-02-17T09:23:39.385Z,2.40
2023-02-17T09:26:16.382Z,2.17
2023-02-17T09:28:46.883Z,2.40
2023-02-17T09:31:24.365Z,2.90
2023-02-17T09:33:57.536Z,2.17
2023-02-17T09:36:35.511Z,2.20
2023-02-17T09:39:06.116Z,2.20
2023-02-17T09:41:47.320Z,2.15
2023-02-17T09:44:26.552Z,1.77
2023-02-17T09:47:09.112Z,2.00
2023-02-17T09:49:46.100Z,1.98
2023-02-17T09:52:23.867Z,1.80
2023-02-17T09:55:06.502Z,1.80
2023-02-17T09:57:52.091Z,1.48
2023-02-17T10:00:27.530Z,1.55
2023-02-17T10:03:08.388Z,1.60
2023-02-17T10:05:48.605Z,2.00
2023-02-17T10:08:25.418Z,1.70
2023-02-17T10:11:03.714Z,1.98
2023-02-17T10:13:40.207Z,1.70
2023-02-17T10:16:23.049Z,1.88
2023-02-17T10:19:03.004Z,1.38
2023-02-17T10:21:45.195Z,1.48
2023-02-17T10:24:15.449Z,1.40
2023-02-17T10:27:03.371Z,1.52
2023-02-17T10:29:54.181Z,1.50
2023-02-17T10:32:27.239Z,1.30
2023-02-17T10:35:16.922Z,1.30
2023-02-17T10:37:52.749Z,1.17
2023-02-17T10:40:27.013Z,1.27
2023-02-17T10:43:04.298Z,1.23
2023-02-17T10:45:44.170Z,1.08
2023-02-17T10:48:21.730Z,1.02
2023-02-17T10:50:55.671Z,1.00
2023-02-17T10:53:34.553Z,1.10
2023-02-17T10:56:17.391Z,1.02
2023-02-17T10:58:58.775Z,0.82
2023-02-17T11:01:32.124Z,1.02
2023-02-17T11:04:06.013Z,1.13
2023-02-17T11:06:46.541Z,9.52
2023-02-17T11:09:32.923Z,2.92
2023-02-17T11:12:09.863Z,1.38
2023-02-17T11:14:46.593Z,2.38
2023-02-17T11:17:33.471Z,1.60
2023-02-17T11:20:08.411Z,1.23
2023-02-17T11:22:41.736Z,1.00
2023-02-17T11:25:26.715Z,0.98
2023-02-17T11:28:00.273Z,0.70
2023-02-17T11:30:34.082Z,1.00
2023-02-17T11:33:19.491Z,0.70
2023-02-17T11:35:56.365Z,0.80
2023-02-17T11:38:29.564Z,0.90
2023-02-17T11:41:03.471Z,0.77
2023-02-17T11:43:35.402Z,4.05
2023-02-17T11:46:24.135Z,1.25
2023-02-17T11:49:44.764Z,0.93
2023-02-17T11:52:33.809Z,0.70
2023-02-17T11:55:24.237Z,0.90
2023-02-17T11:58:23.774Z,0.80
2023-02-17T12:01:10.707Z,0.70
2023-02-17T12:04:31.806Z,0.65
2023-02-17T12:07:42.207Z,0.60
2023-02-17T12:10:28.796Z,0.98
2023-02-17T12:13:21.371Z,0.55
2023-02-17T12:16:35.335Z,0.60
2023-02-17T12:19:44.752Z,0.77
2023-02-17T12:22:30.310Z,0.70
2023-02-17T12:25:23.331Z,0.80
2023-02-17T12:28:19.243Z,0.80
2023-02-17T12:31:24.003Z,0.88
2023-02-17T12:34:04.739Z,0.90
2023-02-17T12:36:41.611Z,0.63
2023-02-17T12:39:23.967Z,0.70
2023-02-17T12:42:01.277Z,0.80
2023-02-17T12:44:36.528Z,1.08
2023-02-17T12:47:17.582Z,0.85
2023-02-17T12:49:55.386Z,0.80
2023-02-17T12:52:33.042Z,0.82
2023-02-17T12:55:19.891Z,1.13
2023-02-17T12:57:58.436Z,0.73
2023-02-17T13:00:37.898Z,3.03
2023-02-17T13:03:10.385Z,0.70
2023-02-17T13:05:51.664Z,0.70
2023-02-17T13:08:27.969Z,0.90
2023-02-17T13:11:09.975Z,0.90
2023-02-17T13:13:40.378Z,0.80
2023-02-17T13:16:14.509Z,1.20
2023-02-17T13:18:50.015Z,1.00
2023-02-17T13:21:34.641Z,0.82
2023-02-17T13:24:08.941Z,1.05
2023-02-17T13:26:47.794Z,0.90
2023-02-17T13:29:35.738Z,1.63
2023-02-17T13:32:10.771Z,1.00
2023-02-17T13:34:45.144Z,0.90
2023-02-17T13:37:28.344Z,1.08
2023-02-17T13:40:26.268Z,0.93
2023-02-17T13:43:00.954Z,0.95
2023-02-17T13:45:41.529Z,0.88
2023-02-17T13:48:26.759Z,1.17
2023-02-17T13:51:00.096Z,0.80
2023-02-17T13:53:37.490Z,0.80
2023-02-17T13:56:11.731Z,1.10
2023-02-17T13:58:45.384Z,0.90
2023-02-17T14:01:21.462Z,1.00
2023-02-17T14:03:55.171Z,0.80
2023-02-17T14:06:30.735Z,1.00
2023-02-17T14:09:01.507Z,2.00
2023-02-17T14:11:33.506Z,1.48
2023-02-17T14:14:10.450Z,1.15
2023-02-17T14:16:44.160Z,1.30
2023-02-17T14:19:17.412Z,1.45
2023-02-17T14:22:03.062Z,1.20
2023-02-17T14:24:36.890Z,1.20
2023-02-17T14:27:14.441Z,1.20
2023-02-17T14:29:50.706Z,1.17
2023-02-17T14:32:35.542Z,1.23
2023-02-17T14:35:26.348Z,1.27
2023-02-17T14:37:57.111Z,1.50
2023-02-17T14:40:28.509Z,1.45
2023-02-17T14:42:58.685Z,1.55
2023-02-17T14:45:31.426Z,1.35
2023-02-17T14:48:01.509Z,1.63
2023-02-17T14:50:31.851Z,1.42
2023-02-17T14:53:03.935Z,1.80
2023-02-17T14:55:40.500Z,1.40
2023-02-17T14:58:13.918Z,1.30
2023-02-17T15:00:46.596Z,1.40
2023-02-17T15:03:16.694Z,1.42
2023-02-17T15:05:47.647Z,1.55
2023-02-17T15:08:22.252Z,1.38
2023-02-17T15:10:53.634Z,1.80
2023-02-17T15:13:27.397Z,1.67
2023-02-17T15:16:00.283Z,1.85
2023-02-17T15:18:30.409Z,1.70
2023-02-17T15:21:01.574Z,2.05
2023-02-17T15:23:37.357Z,2.00
2023-02-17T15:26:12.442Z,1.83
2023-02-17T15:28:42.573Z,8.15
2023-02-17T15:31:32.751Z,5.68
2023-02-17T15:34:04.812Z,4.70
2023-02-17T15:36:37.919Z,4.85
2023-02-17T15:39:08.008Z,6.90
2023-02-17T15:41:38.186Z,4.03
2023-02-17T15:44:09.937Z,3.85
2023-02-17T15:46:45.101Z,2.00
2023-02-17T15:49:16.775Z,2.20
2023-02-17T15:51:46.996Z,2.17
2023-02-17T15:54:19.357Z,2.20
2023-02-17T15:56:53.813Z,2.08
2023-02-17T15:59:28.449Z,2.50
2023-02-17T16:02:02.316Z,2.47
2023-02-17T16:04:32.459Z,2.55
2023-02-17T16:07:02.567Z,2.38
2023-02-17T16:09:36.344Z,2.95
2023-02-17T16:12:07.660Z,2.70
2023-02-17T16:14:41.719Z,2.63
2023-02-17T16:17:19.277Z,3.00
2023-02-17T16:19:49.372Z,2.40
2023-02-17T16:22:19.540Z,2.17
2023-02-17T16:24:49.636Z,1.90
2023-02-17T16:27:20.490Z,1.70
2023-02-17T16:29:50.603Z,1.83
2023-02-17T16:32:24.475Z,1.98
2023-02-17T16:34:54.701Z,1.80
2023-02-17T16:37:24.898Z,2.00
2023-02-17T16:39:54.968Z,2.38
2023-02-17T16:42:25.677Z,2.00
2023-02-17T16:44:58.268Z,2.03
2023-02-17T16:47:33.317Z,2.00
2023-02-17T16:50:11.446Z,1.80
2023-02-17T16:52:42.640Z,2.25
2023-02-17T16:55:19.810Z,2.20
2023-02-17T16:57:51.171Z,2.28
2023-02-17T17:00:27.710Z,2.13
2023-02-17T17:03:01.518Z,1.88
2023-02-17T17:05:34.246Z,2.05
2023-02-17T17:08:06.925Z,2.08
2023-02-17T17:10:40.514Z,2.38
2023-02-17T17:13:10.640Z,2.78
2023-02-17T17:15:44.588Z,8.23
2023-02-17T17:21:05.730Z,3.65
2023-02-17T17:23:35.842Z,3.50
2023-02-17T17:26:09.019Z,4.10
2023-02-17T17:28:39.259Z,4.93
2023-02-17T17:31:09.343Z,5.00
2023-02-17T17:33:42.118Z,5.20
2023-02-17T17:36:21.845Z,4.60
2023-02-17T17:38:52.098Z,4.38
2023-02-17T17:41:26.069Z,4.15
2023-02-17T17:43:57.955Z,4.63
2023-02-17T17:46:31.151Z,4.72
2023-02-17T17:49:06.465Z,5.18
2023-02-17T17:51:37.414Z,4.70
2023-02-17T17:54:08.996Z,5.68
2023-02-17T17:56:43.791Z,5.03
2023-02-17T17:59:16.880Z,4.95
2023-02-17T18:01:47.074Z,3.75
2023-02-17T18:04:19.883Z,4.07
2023-02-17T18:06:54.450Z,4.13
2023-02-17T18:09:32.210Z,3.70
2023-02-17T18:12:06.262Z,3.65
2023-02-17T18:14:40.021Z,3.38
2023-02-17T18:17:15.314Z,3.30
2023-02-17T18:19:49.753Z,3.67
2023-02-17T18:22:22.326Z,20.05
2023-02-17T18:24:52.564Z,4.90
2023-02-17T18:27:22.862Z,3.40
2023-02-17T18:29:53.242Z,3.15
2023-02-17T18:32:24.407Z,3.17
2023-02-17T18:34:58.529Z,2.85
2023-02-17T18:37:28.801Z,3.17
2023-02-17T18:39:59.051Z,3.00
2023-02-17T18:42:30.150Z,2.67
2023-02-17T18:45:00.284Z,2.83
2023-02-17T18:47:30.302Z,3.50
2023-02-17T18:50:03.131Z,3.10
2023-02-17T18:52:33.259Z,3.17
2023-02-17T18:55:06.554Z,3.17
2023-02-17T18:57:39.597Z,3.65
2023-02-17T19:00:13.945Z,3.67
2023-02-17T19:02:44.107Z,3.60
2023-02-17T19:05:18.920Z,3.38
2023-02-17T19:07:49.061Z,3.63
2023-02-17T19:10:19.272Z,3.70
2023-02-17T19:12:49.473Z,2.92
2023-02-17T19:15:21.104Z,2.88
2023-02-17T19:17:52.372Z,3.03
2023-02-17T19:20:25.185Z,3.10
2023-02-17T19:22:55.335Z,2.80
2023-02-17T19:25:25.552Z,2.67
2023-02-17T19:27:55.663Z,2.60
2023-02-17T19:30:25.843Z,2.70
2023-02-17T19:32:55.974Z,2.80
2023-02-17T19:35:28.760Z,2.85
2023-02-17T19:37:58.846Z,2.90
2023-02-17T19:40:29.027Z,3.20
2023-02-17T19:42:59.094Z,3.05
2023-02-17T19:45:29.365Z,3.40
2023-02-17T19:47:59.544Z,2.97
2023-02-17T19:50:32.316Z,3.28
2023-02-17T19:53:02.566Z,2.80
2023-02-17T19:55:32.669Z,3.20
2023-02-17T19:58:02.771Z,2.72
2023-02-17T20:03:09.078Z,2.78
2023-02-17T20:05:44.474Z,3.15
2023-02-17T20:08:14.553Z,2.83
2023-02-17T20:10:44.785Z,3.40
2023-02-17T20:13:14.930Z,2.97
2023-02-17T20:15:47.243Z,3.10
2023-02-17T20:18:17.368Z,3.08
2023-02-17T20:20:58.080Z,3.38
2023-02-17T20:23:28.217Z,3.65
2023-02-17T20:25:59.738Z,3.20
2023-02-17T20:28:29.856Z,3.03
2023-02-17T20:31:02.222Z,2.95
2023-02-17T20:33:35.724Z,3.38
2023-02-17T20:36:28.358Z,3.53
2023-02-17T20:38:58.430Z,3.53
2023-02-17T20:41:28.629Z,3.58
2023-02-17T20:44:02.890Z,2.85
2023-02-17T20:46:34.626Z,3.13
2023-02-17T20:49:05.001Z,3.20
2023-02-17T20:51:37.806Z,2.95
2023-02-17T20:54:08.346Z,3.30
2023-02-17T20:56:42.714Z,3.00
2023-02-17T20:59:15.901Z,3.10
2023-02-17T21:01:46.210Z,3.25
2023-02-17T21:04:16.310Z,3.20
2023-02-17T21:06:50.477Z,3.17
2023-02-17T21:09:21.992Z,3.20
2023-02-17T21:11:52.115Z,3.28
2023-02-17T21:14:22.199Z,3.25
2023-02-17T21:16:52.432Z,3.63
2023-02-17T21:19:22.745Z,3.40
2023-02-17T21:21:55.473Z,3.30
2023-02-17T21:24:27.886Z,3.28
2023-02-17T21:26:58.056Z,3.40
2023-02-17T21:29:28.272Z,3.08
2023-02-17T21:31:58.465Z,3.28
2023-02-17T21:34:28.670Z,2.70
2023-02-17T21:37:01.387Z,3.38
2023-02-17T21:39:31.438Z,3.70
2023-02-17T21:42:01.573Z,4.18
2023-02-17T21:44:44.392Z,3.90
2023-02-17T21:47:14.897Z,4.18
2023-02-17T21:49:45.292Z,3.88
2023-02-17T21:52:18.607Z,4.15
2023-02-17T21:54:48.691Z,3.50
2023-02-17T21:57:18.798Z,3.80
2023-02-17T21:59:48.906Z,3.90
2023-02-17T22:02:18.974Z,4.35
2023-02-17T22:04:49.112Z,3.45
2023-02-17T22:07:21.782Z,3.67
2023-02-17T22:09:51.895Z,3.95
2023-02-17T22:12:22.064Z,3.58
2023-02-17T22:14:52.187Z,3.60
2023-02-17T22:17:22.451Z,3.55
2023-02-17T22:19:52.562Z,3.55
2023-02-17T22:22:27.897Z,3.47
2023-02-17T22:24:58.426Z,3.92
2023-02-17T22:27:28.595Z,3.45
2023-02-17T22:29:59.165Z,3.70
2023-02-17T22:32:29.341Z,3.90
2023-02-17T22:34:59.709Z,4.18
2023-02-17T22:37:32.717Z,4.00
2023-02-17T22:40:04.135Z,4.20
2023-02-17T22:42:34.290Z,3.53
2023-02-17T22:45:04.452Z,3.78
2023-02-17T22:47:34.596Z,3.97
2023-02-17T22:50:04.758Z,4.35
2023-02-17T22:52:37.742Z,3.72
2023-02-17T22:55:08.845Z,3.38
2023-02-17T22:57:39.073Z,3.28
2023-02-17T23:00:14.189Z,3.90
2023-02-17T23:02:44.375Z,3.03
2023-02-17T23:05:15.092Z,2.88
2023-02-17T23:07:47.886Z,2.90
2023-02-17T23:10:17.954Z,2.78
2023-02-17T23:12:49.355Z,2.70
2023-02-17T23:15:19.517Z,2.70
2023-02-17T23:18:01.492Z,2.60
2023-02-17T23:20:31.866Z,2.30
2023-02-17T23:23:04.614Z,2.47
2023-02-17T23:25:34.846Z,2.40
2023-02-17T23:28:06.072Z,2.40
2023-02-17T23:30:39.627Z,2.08
2023-02-17T23:33:10.153Z,2.00
2023-02-17T23:35:45.034Z,2.45
2023-02-17T23:38:20.448Z,2.20
2023-02-17T23:40:53.287Z,2.20
2023-02-17T23:43:23.930Z,2.15
2023-02-17T23:45:58.357Z,2.10
2023-02-17T23:48:28.639Z,2.33
2023-02-17T23:51:03.194Z,2.70
2023-02-17T23:53:39.017Z,2.03
2023-02-17T23:56:13.810Z,2.20
2023-02-17T23:58:44.120Z,2.28
